map of EJH home
EJH - Airport
Location
City:  Wejh, Saudi Arabia
Near (Alt.):Wedjh, Al-Wajh
Name:Wejh Airport
ICAO:OEWJ
IATA:EJH

Details
Type:Airport (Aerodrome, Airfield)
Use:Public/Civil, International (customs port of entry)
Latitude:2611'55"N (26.198611)
Longitude:3628'34"E (36.476111)
Elevation:66 ft (20 m)
Variation:4.15E (WMM2015 magnetic declination)
0.07 annual change
Runways:1
Longest:10007 × 148 ft (3050 × 45 m), paved

Time
Time Zone:UTC+3
Local Time:

Weather
METAR:OEWJ 190200Z 10004KT 9999 SCT040 22/16 Q1012 NOSIG

Related Locations
Nearby:
Farthest:RVV: 12137 mi / 19533 km
Raivavae, Tubuai Islands, Austral Islands, PF

Find:

   beyond  
but within

Other Information
Maps:
NOTAMs:
Links:
Sources:

  
  • flag of Saudi Arabia
  

Sectional Chart

Flight Planning
at skyvector.com

Satellite Image

Google Maps Satellite view

 

Copyright © 2004-2018 Karl L. Swartz. All rights reserved.
The Great Circle Mapper name and logo are trademarks of the Great Circle Mapper.
All other trademarks mentioned herein belong to their respective owners.
Please see credits for attibutions and further copyright information.

  Follow gcmap on Facebook Follow gcmap on Twitter Follow gcmap on Google+ GCmap on LinkedIn

hCard Microformat

Geo Microformat